(°C)
19°
19°
19°
19°
19°
19°
19°
(°C)
13°
13°
13°
13°
14°
14°
14°
OSO
OSO
OSO
O
O
O
O
(km/h)
13-31
13-32
11-32
10-32
8-25
7-22
7-22
(mm)
1
1.8
1.9
0
0
0
0
(%)
87
87
80
62
50
40
39

Elevación del sol

/ 33.2°
sun-icon
UV 1
07:27
19:28
Creciente (19°)
08:51
20:21

METAR a Ioánina (LGIO)

Hora Condiciones Temperatura/
Punto de condensación
Viento Visibilidad Tiempo Nubes Presión Cambiar Bruto
18°C / 18°C variable 2kt Light Rain 1.00mm precipitation Vertical Visibility of 0ft. 1008 - LGIO 271250Z AUTO VRB02KT //// -RA ////// 18/18 Q1008 RE//
VFR 18°C / 18°C 170º 2kt >10km Light Thunderstorm Rain 3.00mm precipitation Vertical Visibility of 0ft.
Few Clouds 2000ft
Overcast 3500ft
1008 - LGIO 271220Z 17002KT 9999 -TSRA FEW005 FEW020CB OVC035 18/18 Q1008
IFR 19°C / 17°C 280º 6kt 3000m Light Thunderstorm Rain Mist 3.00mm precipitation Vertical Visibility of 0ft.
Overcast 3000ft
1008 - LGIO 271150Z 28006KT 3000 -TSRA BR FEW020CB OVC030 19/17 Q1008
MVFR 21°C / 18°C 90º variable 070º to 140º 6kt 8000m - Few Clouds 2000ft
Broken Clouds 4000ft
1007 - LGIO 271120Z 09006KT 070V140 8000 FEW020 BKN040 21/18 Q1007
VFR 22°C / 17°C 100º 7kt >10km - Few Clouds 2500ft
Broken Clouds 4000ft
1008 - LGIO 271050Z 10007KT 9999 FEW025 BKN040 22/17 Q1008
VFR 21°C / 17°C 120º variable 080º to 140º 5kt >10km - Few Clouds 2500ft
Broken Clouds 4000ft
1008 - LGIO 271020Z 12005KT 080V140 9999 FEW025 BKN040 21/17 Q1008
VFR 20°C / 17°C 100º 7kt >10km - Few Clouds 2000ft
Broken Clouds 4000ft
1008 - LGIO 270950Z 10007KT 9999 FEW020 BKN040 20/17 Q1008
VFR 20°C / 16°C 100º 6kt >10km - Few Clouds 2000ft
Broken Clouds 4000ft
1008 - LGIO 270920Z 10006KT 9999 FEW020 BKN040 20/16 Q1008
VFR 20°C / 17°C 120º variable 100º to 200º 7kt >10km - Few Clouds 2000ft
Broken Clouds 4000ft
1008 - LGIO 270850Z 12007KT 100V200 9999 FEW020 BKN040 20/17 Q1008
VFR 20°C / 17°C 120º 5kt >10km Light Rain 1.00mm precipitation Vertical Visibility of 0ft.
Broken Clouds 4000ft
1008 - LGIO 270820Z 12005KT 9999 -RA FEW015 BKN040 20/17 Q1008
VFR 19°C / 16°C 110º 2kt >10km - Few Clouds 1500ft
Broken Clouds 4000ft
1009 - LGIO 270750Z 11002KT 9999 FEW015 BKN040 19/16 Q1009
VFR 18°C / 16°C 140º 3kt >10km - Few Clouds 1400ft
Broken Clouds 4000ft
1008 - LGIO 270720Z 14003KT 9999 FEW014 BKN040 18/16 Q1008
MVFR 17°C / 16°C 140º variable 100º to 160º 6kt >10km - Few Clouds 1400ft
Overcast 3000ft
1008 - LGIO 270650Z 14006KT 100V160 9999 FEW014 OVC030 17/16 Q1008
MVFR 16°C / 15°C 130º variable 090º to 160º 5kt >10km - Few Clouds 1400ft
Overcast 3000ft
1009 - LGIO 270620Z 13005KT 090V160 9999 FEW014 OVC030 16/15 Q1009
MVFR 16°C / 15°C 140º variable 130º to 190º 6kt >10km Light Rain 1.00mm precipitation Vertical Visibility of 0ft.
Overcast 3000ft
1009 - LGIO 270550Z 14006KT 130V190 9999 -RA FEW014 OVC030 16/15 Q1009
16°C / 15°C 140º variable 110º to 170º 5kt - 1009 - LGIO 270520Z AUTO 14005KT 110V170 //// // ////// 16/15 Q1009 RERA
16°C / 15°C 140º 5kt - 1009 - LGIO 270450Z AUTO 14005KT //// // ////// 16/15 Q1009 RERA
15°C / 15°C 140º 7kt Light Rain 1.00mm precipitation Vertical Visibility of 0ft. 1009 - LGIO 270420Z AUTO 14007KT //// -RA ////// 15/15 Q1009 RE//
15°C / 15°C variable 2kt Light Rain 1.00mm precipitation Vertical Visibility of 0ft. 1009 - LGIO 270350Z AUTO VRB02KT //// -RA ////// 15/15 Q1009 RE//
15°C / 15°C 120º variable 090º to 160º 4kt Light Rain 1.00mm precipitation Vertical Visibility of 0ft. 1009 - LGIO 270320Z AUTO 12004KT 090V160 //// -RA ////// 15/15 Q1009 RE//
15°C / 14°C 120º 6kt Light Rain 1.00mm precipitation Vertical Visibility of 0ft. 1010 - LGIO 270250Z AUTO 12006KT //// -RA ////// 15/14 Q1010 RE//
15°C / 14°C 140º variable 120º to 210º 4kt Light Rain 1.00mm precipitation Vertical Visibility of 0ft. 1010 - LGIO 270220Z AUTO 14004KT 120V210 //// -RA ////// 15/14 Q1010 RE//
15°C / 14°C variable 3kt Light Rain 1.00mm precipitation Vertical Visibility of 0ft. 1010 - LGIO 270150Z AUTO VRB03KT //// -RA ////// 15/14 Q1010 RE//
15°C / 14°C 140º variable 110º to 170º 10kt Light Rain 1.00mm precipitation Vertical Visibility of 0ft. 1010 - LGIO 270120Z AUTO 14010KT 110V170 //// -RA ////// 15/14 Q1010 RE//

18°C / 18°C

[Más]
Viento variable 2kt
Visibilidad
Tiempo Light Rain 1.00mm precipitation
Nubes Vertical Visibility of 0ft.
Presión 1008
Cambiar -
Bruto LGIO 271250Z AUTO VRB02KT //// -RA ////// 18/18 Q1008 RE//

VFR

18°C / 18°C

[Más]
Viento 170º 2kt
Visibilidad >10km
Tiempo Light Thunderstorm Rain 3.00mm precipitation
Nubes Vertical Visibility of 0ft.
Few Clouds 2000ft
Overcast 3500ft
Presión 1008
Cambiar -
Bruto LGIO 271220Z 17002KT 9999 -TSRA FEW005 FEW020CB OVC035 18/18 Q1008

IFR

19°C / 17°C

[Más]
Viento 280º 6kt
Visibilidad 3000m
Tiempo Light Thunderstorm Rain Mist 3.00mm precipitation
Nubes Vertical Visibility of 0ft.
Overcast 3000ft
Presión 1008
Cambiar -
Bruto LGIO 271150Z 28006KT 3000 -TSRA BR FEW020CB OVC030 19/17 Q1008

MVFR

21°C / 18°C

[Más]
Viento 90º variable 070º to 140º 6kt
Visibilidad 8000m
Tiempo -
Nubes Few Clouds 2000ft
Broken Clouds 4000ft
Presión 1007
Cambiar -
Bruto LGIO 271120Z 09006KT 070V140 8000 FEW020 BKN040 21/18 Q1007

VFR

22°C / 17°C

[Más]
Viento 100º 7kt
Visibilidad >10km
Tiempo -
Nubes Few Clouds 2500ft
Broken Clouds 4000ft
Presión 1008
Cambiar -
Bruto LGIO 271050Z 10007KT 9999 FEW025 BKN040 22/17 Q1008

VFR

21°C / 17°C

[Más]
Viento 120º variable 080º to 140º 5kt
Visibilidad >10km
Tiempo -
Nubes Few Clouds 2500ft
Broken Clouds 4000ft
Presión 1008
Cambiar -
Bruto LGIO 271020Z 12005KT 080V140 9999 FEW025 BKN040 21/17 Q1008

VFR

20°C / 17°C

[Más]
Viento 100º 7kt
Visibilidad >10km
Tiempo -
Nubes Few Clouds 2000ft
Broken Clouds 4000ft
Presión 1008
Cambiar -
Bruto LGIO 270950Z 10007KT 9999 FEW020 BKN040 20/17 Q1008

VFR

20°C / 16°C

[Más]
Viento 100º 6kt
Visibilidad >10km
Tiempo -
Nubes Few Clouds 2000ft
Broken Clouds 4000ft
Presión 1008
Cambiar -
Bruto LGIO 270920Z 10006KT 9999 FEW020 BKN040 20/16 Q1008

VFR

20°C / 17°C

[Más]
Viento 120º variable 100º to 200º 7kt
Visibilidad >10km
Tiempo -
Nubes Few Clouds 2000ft
Broken Clouds 4000ft
Presión 1008
Cambiar -
Bruto LGIO 270850Z 12007KT 100V200 9999 FEW020 BKN040 20/17 Q1008

VFR

20°C / 17°C

[Más]
Viento 120º 5kt
Visibilidad >10km
Tiempo Light Rain 1.00mm precipitation
Nubes Vertical Visibility of 0ft.
Broken Clouds 4000ft
Presión 1008
Cambiar -
Bruto LGIO 270820Z 12005KT 9999 -RA FEW015 BKN040 20/17 Q1008

VFR

19°C / 16°C

[Más]
Viento 110º 2kt
Visibilidad >10km
Tiempo -
Nubes Few Clouds 1500ft
Broken Clouds 4000ft
Presión 1009
Cambiar -
Bruto LGIO 270750Z 11002KT 9999 FEW015 BKN040 19/16 Q1009

VFR

18°C / 16°C

[Más]
Viento 140º 3kt
Visibilidad >10km
Tiempo -
Nubes Few Clouds 1400ft
Broken Clouds 4000ft
Presión 1008
Cambiar -
Bruto LGIO 270720Z 14003KT 9999 FEW014 BKN040 18/16 Q1008

MVFR

17°C / 16°C

[Más]
Viento 140º variable 100º to 160º 6kt
Visibilidad >10km
Tiempo -
Nubes Few Clouds 1400ft
Overcast 3000ft
Presión 1008
Cambiar -
Bruto LGIO 270650Z 14006KT 100V160 9999 FEW014 OVC030 17/16 Q1008

MVFR

16°C / 15°C

[Más]
Viento 130º variable 090º to 160º 5kt
Visibilidad >10km
Tiempo -
Nubes Few Clouds 1400ft
Overcast 3000ft
Presión 1009
Cambiar -
Bruto LGIO 270620Z 13005KT 090V160 9999 FEW014 OVC030 16/15 Q1009

MVFR

16°C / 15°C

[Más]
Viento 140º variable 130º to 190º 6kt
Visibilidad >10km
Tiempo Light Rain 1.00mm precipitation
Nubes Vertical Visibility of 0ft.
Overcast 3000ft
Presión 1009
Cambiar -
Bruto LGIO 270550Z 14006KT 130V190 9999 -RA FEW014 OVC030 16/15 Q1009

16°C / 15°C

[Más]
Viento 140º variable 110º to 170º 5kt
Visibilidad
Tiempo -
Nubes
Presión 1009
Cambiar -
Bruto LGIO 270520Z AUTO 14005KT 110V170 //// // ////// 16/15 Q1009 RERA

16°C / 15°C

[Más]
Viento 140º 5kt
Visibilidad
Tiempo -
Nubes
Presión 1009
Cambiar -
Bruto LGIO 270450Z AUTO 14005KT //// // ////// 16/15 Q1009 RERA

15°C / 15°C

[Más]
Viento 140º 7kt
Visibilidad
Tiempo Light Rain 1.00mm precipitation
Nubes Vertical Visibility of 0ft.
Presión 1009
Cambiar -
Bruto LGIO 270420Z AUTO 14007KT //// -RA ////// 15/15 Q1009 RE//

15°C / 15°C

[Más]
Viento variable 2kt
Visibilidad
Tiempo Light Rain 1.00mm precipitation
Nubes Vertical Visibility of 0ft.
Presión 1009
Cambiar -
Bruto LGIO 270350Z AUTO VRB02KT //// -RA ////// 15/15 Q1009 RE//

15°C / 15°C

[Más]
Viento 120º variable 090º to 160º 4kt
Visibilidad
Tiempo Light Rain 1.00mm precipitation
Nubes Vertical Visibility of 0ft.
Presión 1009
Cambiar -
Bruto LGIO 270320Z AUTO 12004KT 090V160 //// -RA ////// 15/15 Q1009 RE//

15°C / 14°C

[Más]
Viento 120º 6kt
Visibilidad
Tiempo Light Rain 1.00mm precipitation
Nubes Vertical Visibility of 0ft.
Presión 1010
Cambiar -
Bruto LGIO 270250Z AUTO 12006KT //// -RA ////// 15/14 Q1010 RE//

15°C / 14°C

[Más]
Viento 140º variable 120º to 210º 4kt
Visibilidad
Tiempo Light Rain 1.00mm precipitation
Nubes Vertical Visibility of 0ft.
Presión 1010
Cambiar -
Bruto LGIO 270220Z AUTO 14004KT 120V210 //// -RA ////// 15/14 Q1010 RE//

15°C / 14°C

[Más]
Viento variable 3kt
Visibilidad
Tiempo Light Rain 1.00mm precipitation
Nubes Vertical Visibility of 0ft.
Presión 1010
Cambiar -
Bruto LGIO 270150Z AUTO VRB03KT //// -RA ////// 15/14 Q1010 RE//

15°C / 14°C

[Más]
Viento 140º variable 110º to 170º 10kt
Visibilidad
Tiempo Light Rain 1.00mm precipitation
Nubes Vertical Visibility of 0ft.
Presión 1010
Cambiar -
Bruto LGIO 270120Z AUTO 14010KT 110V170 //// -RA ////// 15/14 Q1010 RE//

TAF a Ioánina (LGIO)

From till


From till Wind variable 3kt. Visibility 10km or more. Broken Clouds 2500ft. Broken Clouds 8000ft.
With 40% probability, Temporarly from till Visibility 4000m. Thunderstorm Rain . Few Clouds 600ft. Few Clouds 1800ft. Broken Clouds 2000ft.
Temporarly from till Visibility 6000m. Rain . Few Clouds 800ft. Broken Clouds 2000ft. Broken Clouds 7000ft.

Bruto: TAF LGIO 271100Z 2712/2721 VRB03KT 9999 BKN025 BKN080 TEMPO 2712/2721 6000 RA FEW008 BKN020 BKN070 PROB40 TEMPO 2712/2720 4000 TSRA FEW006 FEW018CB BKN020 OVC070

Radar y precipitación nowcast para Ioánina

llovizna
Leve
Moderado
Fuerte
Muy fuerte
Granizo

El marcador del lugar se coloca en Ioánina. Esta animación muestra el radar de precipitaciones hasta la última hora, así como 1h de previsión. Las lloviznas o las nevadas ligeras pueden ser invisibles para el radar. La intensidad de la precipitación está codificada por colores, que van del azul claro al naranja.

Imágenes actuales de satélite y lluvia para Ioánina, Grecia

El marcador del lugar se coloca en Ioánina. [Más]

La imagen de satélite en tiempo real se aprovecha de la combinación de bandas de la luz visible y de la luz infrarroja. Cómo se pueden detectar cambios de temperaturas a través de la banda infrarrojo, la imagen no aparece oscura de noche. No obstante, la niebla y las nubes bajas son apenas visibles en las imágenes de infrarrojo ya que las diferencias de temperaturas entre el suelo y la niebla son muy pequeñas, por eso, son casi invisibles durante la noche. Las imágenes de satélite del Meteosat (Europa) son actualizados en tiempo real cada 5 minutos. Las imágenes del GOES-16/GOES-17 (América del Norte y América del Sur) y Himawari (Asia) son actualizadas cada 10 minutos.

La precipitación se estima a partir del radar y de los satélites. Las estimaciones de la precipitación desde los satélites son menos precisas durante la noche que durante el día. Las cruces naranjas identifican lugares donde se detectaron relámpagos (en Europa).

Copyright 2022 EUMETSAT / meteoblue. Datos de relámpagos proporcionados por nowcast.

Volver al principio